createdAt,value
2022-10-22T00:59:25.592Z,1014.58
2022-10-22T01:28:22.163Z,1015.42
2022-10-22T01:57:13.897Z,1015.09
2022-10-22T02:26:09.706Z,1014.05
2022-10-22T02:54:57.293Z,1014.22
2022-10-22T03:23:50.942Z,1014.17
2022-10-22T03:52:40.334Z,1014.51
2022-10-22T04:21:33.356Z,1014.77
2022-10-22T04:50:17.105Z,1014.91
2022-10-22T05:19:02.714Z,1015.12
2022-10-22T05:47:46.280Z,1015.29
2022-10-22T06:18:29.591Z,1015.63
2022-10-22T07:16:11.448Z,1016.32
2022-10-22T07:44:21.740Z,1016.53
2022-10-22T08:12:57.691Z,1016.67
2022-10-22T08:41:20.734Z,1016.75
2022-10-22T09:09:43.942Z,1017.06
2022-10-22T09:38:14.253Z,1017.2
2022-10-22T10:06:44.161Z,1017.22
2022-10-22T10:35:00.115Z,1017.24
2022-10-22T11:03:28.391Z,1017.11
2022-10-22T11:31:59.706Z,1016.97
2022-10-22T12:00:32.281Z,1016.93
2022-10-22T12:29:06.747Z,1016.83
2022-10-22T12:57:41.428Z,1016.7
2022-10-22T13:26:12.281Z,1016.52
2022-10-22T13:54:42.094Z,1016.3
2022-10-22T14:23:23.232Z,1016.33
2022-10-22T14:51:50.636Z,1016.35
2022-10-22T15:20:27.648Z,1016.19
2022-10-22T15:48:56.270Z,1016.16
2022-10-22T16:17:31.089Z,1016.37
2022-10-22T16:46:02.384Z,1016.27
2022-10-22T17:14:42.570Z,1016.54
2022-10-22T17:43:12.124Z,1016.57
2022-10-22T18:11:48.802Z,1016.56
2022-10-22T18:40:20.734Z,1016.58
2022-10-22T19:08:31.862Z,1016.42
2022-10-22T19:36:45.642Z,1016.15
2022-10-22T20:05:57.289Z,1016.22
2022-10-22T20:34:14.431Z,1016.63
2022-10-22T21:02:27.675Z,1016.74
2022-10-22T21:31:04.308Z,1016.67
2022-10-22T21:59:40.042Z,1016.69
2022-10-22T22:28:23.874Z,1016.62
2022-10-22T22:57:04.334Z,1016.28
2022-10-22T23:25:37.871Z,1016.48
2022-10-22T23:54:12.209Z,1016.13
